Terminal Aerodrome Forecast
Issued by NWS

Home | Current Version | Previous Version | Text Only | Print | Product List | Glossary On
Versions: 1 2 3 4 5 6 7 8 9 10 11 12 13 14 15 16
000
FTUS41 KBTV 030520
TAFMPV
TAF
KMPV 030520Z 0306/0406 20008KT P6SM SCT200
     FM031300 19012G19KT P6SM SCT060 BKN150
     FM031800 21014G22KT P6SM VCSH SCT035 BKN090
     FM032100 21011G18KT 6SM +SHRA BKN035 BKN090
     FM040100 23010KT P6SM VCSH OVC060=

USA.gov is the U.S. government's official web portal to all federal, state and local government web resources and services.